createdAt,value
2023-01-15T00:02:49.368Z,8.37
2023-01-15T00:07:52.160Z,8.73
2023-01-15T00:12:54.073Z,8.82
2023-01-15T00:17:55.829Z,8.18
2023-01-15T00:22:57.608Z,8.33
2023-01-15T00:28:01.654Z,8.32
2023-01-15T00:33:03.725Z,8.70
2023-01-15T00:38:05.548Z,8.24
2023-01-15T00:43:07.390Z,8.00
2023-01-15T00:48:09.343Z,8.24
2023-01-15T00:53:11.090Z,8.31
2023-01-15T00:58:13.104Z,8.08
2023-01-15T01:03:15.088Z,7.94
2023-01-15T01:08:17.588Z,8.78
2023-01-15T01:13:19.503Z,8.39
2023-01-15T01:18:21.239Z,8.23
2023-01-15T01:23:23.902Z,8.00
2023-01-15T01:28:25.652Z,8.12
2023-01-15T01:33:27.511Z,8.13
2023-01-15T01:38:30.974Z,8.47
2023-01-15T01:43:51.373Z,7.78
2023-01-15T01:48:55.981Z,8.18
2023-01-15T01:54:00.176Z,8.31
2023-01-15T01:59:02.732Z,7.86
2023-01-15T02:04:07.111Z,7.74
2023-01-15T02:09:08.936Z,7.98
2023-01-15T02:14:24.160Z,8.34
2023-01-15T02:19:42.054Z,7.64
2023-01-15T02:24:43.820Z,7.77
2023-01-15T02:29:49.089Z,7.09
2023-01-15T02:34:59.724Z,7.44
2023-01-15T02:40:05.409Z,7.68
2023-01-15T02:45:09.225Z,7.74
2023-01-15T02:50:13.677Z,7.63
2023-01-15T02:55:24.429Z,7.39
2023-01-15T03:00:30.088Z,7.74
2023-01-15T03:05:36.269Z,7.50
2023-01-15T03:10:50.436Z,7.75
2023-01-15T03:16:14.449Z,7.75
2023-01-15T03:21:19.713Z,7.75
2023-01-15T03:26:21.646Z,8.06
2023-01-15T03:31:23.501Z,7.69
2023-01-15T03:36:25.354Z,8.22
2023-01-15T03:41:38.034Z,7.88
2023-01-15T03:46:46.149Z,7.88
2023-01-15T03:51:55.654Z,8.07
2023-01-15T03:57:06.523Z,7.87
2023-01-15T04:02:09.579Z,7.72
2023-01-15T04:07:12.587Z,7.79
2023-01-15T04:12:15.307Z,7.58
2023-01-15T04:17:21.710Z,8.27
2023-01-15T04:22:23.544Z,8.26
2023-01-15T04:27:27.268Z,8.34
2023-01-15T04:32:29.012Z,8.11
2023-01-15T04:37:30.868Z,7.88
2023-01-15T04:42:51.289Z,7.99
2023-01-15T04:47:53.058Z,8.20
2023-01-15T04:52:54.783Z,8.43
2023-01-15T04:57:56.926Z,8.37
2023-01-15T05:02:58.829Z,8.50
2023-01-15T05:08:00.642Z,8.02
2023-01-15T05:13:02.397Z,8.23
2023-01-15T05:18:04.758Z,7.90
2023-01-15T05:23:06.515Z,8.17
2023-01-15T05:28:08.282Z,8.57
2023-01-15T05:33:10.040Z,8.27
2023-01-15T05:38:11.830Z,8.79
2023-01-15T05:43:13.606Z,8.95
2023-01-15T05:48:15.513Z,8.63
2023-01-15T05:53:17.299Z,8.60
2023-01-15T05:58:19.060Z,8.57
2023-01-15T06:03:24.539Z,8.90
2023-01-15T06:08:26.309Z,8.98
2023-01-15T06:13:28.064Z,9.15
2023-01-15T06:18:29.937Z,9.04
2023-01-15T06:23:32.226Z,8.80
2023-01-15T06:28:34.585Z,8.76
2023-01-15T06:33:36.442Z,9.03
2023-01-15T06:38:38.507Z,9.16
2023-01-15T06:43:58.882Z,9.11
2023-01-15T06:49:00.664Z,9.44
2023-01-15T06:54:02.438Z,9.40
2023-01-15T06:59:04.247Z,9.39
2023-01-15T07:04:06.056Z,9.18
2023-01-15T07:09:08.150Z,9.46
2023-01-15T07:14:09.905Z,9.30
2023-01-15T07:19:11.878Z,9.50
2023-01-15T07:24:14.025Z,9.81
2023-01-15T07:29:16.014Z,9.68
2023-01-15T07:34:17.810Z,9.60
2023-01-15T07:39:19.719Z,9.83
2023-01-15T07:44:40.279Z,9.51
2023-01-15T07:49:51.221Z,9.74
2023-01-15T07:54:53.312Z,9.90
2023-01-15T07:59:55.303Z,9.83
2023-01-15T08:04:57.069Z,9.48
2023-01-15T08:09:58.875Z,9.59
2023-01-15T08:15:16.773Z,10.23
2023-01-15T08:20:20.173Z,9.69
2023-01-15T08:25:23.446Z,10.07
2023-01-15T08:30:25.647Z,10.18
2023-01-15T08:35:27.479Z,9.96
2023-01-15T08:40:29.535Z,9.98
2023-01-15T08:45:31.404Z,10.14
2023-01-15T08:50:33.332Z,10.35
2023-01-15T08:55:37.382Z,10.60
2023-01-15T09:00:39.178Z,10.55
2023-01-15T09:05:41.446Z,10.54
2023-01-15T09:10:43.250Z,10.77
2023-01-15T09:15:45.084Z,10.62
2023-01-15T09:20:47.332Z,11.03
2023-01-15T09:26:00.169Z,10.46
2023-01-15T09:31:01.996Z,10.58
2023-01-15T09:36:03.974Z,10.74
2023-01-15T09:41:30.420Z,10.45
2023-01-15T09:46:52.702Z,10.45
2023-01-15T09:52:03.665Z,10.39
2023-01-15T09:57:10.303Z,10.30
2023-01-15T10:02:17.634Z,10.50
2023-01-15T10:07:33.354Z,10.24
2023-01-15T10:12:36.206Z,10.14
2023-01-15T10:17:42.620Z,10.20
2023-01-15T10:22:50.561Z,10.48
2023-01-15T10:27:52.608Z,10.13
2023-01-15T10:33:03.103Z,10.34
2023-01-15T10:38:15.980Z,10.31
2023-01-15T10:43:28.213Z,10.13
2023-01-15T10:48:33.737Z,10.48
2023-01-15T10:53:44.732Z,10.03
2023-01-15T10:58:54.757Z,9.89
2023-01-15T11:03:56.519Z,10.43
2023-01-15T11:09:09.738Z,10.22
2023-01-15T11:14:31.325Z,10.46
2023-01-15T11:19:43.996Z,10.27
2023-01-15T11:24:51.080Z,10.50
2023-01-15T11:29:54.149Z,10.36
2023-01-15T11:34:57.131Z,10.45
2023-01-15T11:40:07.943Z,10.08
2023-01-15T12:39:51.324Z,6.95
2023-01-15T12:45:00.936Z,6.49
2023-01-15T12:50:15.695Z,6.31
2023-01-15T12:55:26.786Z,6.27
2023-01-15T13:00:38.001Z,6.23
2023-01-15T13:05:47.856Z,6.13
2023-01-15T13:10:50.884Z,6.04
2023-01-15T13:15:58.685Z,6.00
2023-01-15T13:21:13.325Z,6.10
2023-01-15T13:26:57.678Z,6.12
2023-01-15T13:32:18.312Z,6.13
2023-01-15T13:37:29.960Z,6.19
2023-01-15T13:42:32.302Z,6.16
2023-01-15T13:47:37.473Z,6.12
2023-01-15T13:52:39.093Z,6.20
2023-01-15T13:57:42.796Z,6.21
2023-01-15T14:02:59.467Z,6.14
2023-01-15T14:08:03.270Z,6.11
2023-01-15T14:13:19.892Z,6.21
2023-01-15T14:18:46.398Z,6.19
2023-01-15T14:24:23.545Z,6.17
2023-01-15T14:29:51.008Z,6.27
2023-01-15T14:34:58.581Z,6.26
2023-01-15T14:40:05.129Z,6.25
2023-01-15T14:45:10.749Z,6.29
2023-01-15T14:50:38.814Z,6.30
2023-01-15T14:56:06.442Z,6.28
2023-01-15T15:01:14.816Z,6.19
2023-01-15T15:06:17.668Z,6.10
2023-01-15T15:11:44.126Z,6.10
2023-01-15T15:16:50.749Z,6.28
2023-01-15T15:21:53.403Z,6.24
2023-01-15T15:26:55.194Z,6.20
2023-01-15T15:32:00.111Z,6.19
2023-01-15T15:37:05.275Z,6.24
2023-01-15T15:42:34.857Z,6.35
2023-01-15T15:48:11.345Z,6.35
2023-01-15T15:53:17.831Z,6.33
2023-01-15T15:58:33.276Z,6.30
2023-01-15T16:03:34.816Z,6.32
2023-01-15T16:08:36.342Z,6.43
2023-01-15T16:13:45.466Z,6.44
2023-01-15T16:18:53.608Z,6.41
2023-01-15T16:24:00.096Z,6.39
2023-01-15T16:29:05.232Z,6.34
2023-01-15T16:34:07.343Z,6.29
2023-01-15T16:39:21.151Z,6.38
2023-01-15T16:44:50.683Z,6.48
2023-01-15T16:49:52.883Z,6.47
2023-01-15T16:54:56.767Z,6.41
2023-01-15T17:00:07.901Z,6.36
2023-01-15T17:05:23.584Z,6.32
2023-01-15T17:10:28.224Z,6.27
2023-01-15T17:15:37.380Z,6.35
2023-01-15T17:20:39.096Z,6.40
2023-01-15T17:25:40.645Z,6.36
2023-01-15T17:30:42.188Z,6.34
2023-01-15T17:35:45.870Z,6.29
2023-01-15T17:40:47.602Z,6.20
2023-01-15T17:45:49.096Z,6.32
2023-01-15T17:50:50.582Z,6.35
2023-01-15T17:56:10.954Z,6.33
2023-01-15T18:01:38.127Z,6.28
2023-01-15T18:06:46.034Z,6.36
2023-01-15T18:11:47.635Z,6.35
2023-01-15T18:16:49.232Z,6.26
2023-01-15T18:21:50.782Z,6.20
2023-01-15T18:26:52.787Z,6.26
2023-01-15T18:31:54.485Z,6.25
2023-01-15T18:36:56.094Z,6.20
2023-01-15T18:41:57.605Z,6.15
2023-01-15T18:47:01.740Z,6.24
2023-01-15T18:52:22.212Z,6.26
2023-01-15T18:57:24.513Z,6.17
2023-01-15T19:02:26.063Z,6.20
2023-01-15T19:07:27.721Z,6.24
2023-01-15T19:12:29.216Z,6.19
2023-01-15T19:17:49.639Z,6.12
2023-01-15T19:23:00.033Z,6.18
2023-01-15T19:28:01.964Z,6.19
2023-01-15T19:33:03.891Z,6.13
2023-01-15T19:38:10.609Z,6.05
2023-01-15T19:43:31.045Z,6.13
2023-01-15T19:48:52.561Z,6.13
2023-01-15T19:53:54.142Z,6.09
2023-01-15T19:58:55.645Z,6.01
2023-01-15T20:03:57.203Z,6.07
2023-01-15T20:08:58.705Z,6.08
2023-01-15T20:14:00.164Z,6.03
2023-01-15T20:19:01.681Z,5.94
2023-01-15T20:24:03.447Z,5.98
2023-01-15T20:29:04.990Z,6.00
2023-01-15T20:34:06.461Z,5.97
2023-01-15T20:39:08.032Z,5.89
2023-01-15T20:44:29.958Z,5.97
2023-01-15T20:49:32.647Z,5.99
2023-01-15T20:54:34.957Z,5.93
2023-01-15T20:59:36.412Z,5.85
2023-01-15T21:04:38.224Z,5.87
2023-01-15T21:09:39.899Z,5.91
2023-01-15T21:14:41.783Z,5.86
2023-01-15T21:19:43.464Z,5.80
2023-01-15T21:24:46.691Z,5.81
2023-01-15T21:29:48.431Z,5.80
2023-01-15T21:34:50.157Z,5.75
2023-01-15T21:39:51.643Z,5.76
2023-01-15T21:44:53.113Z,5.75
2023-01-15T21:49:54.670Z,5.67
2023-01-15T21:54:56.249Z,5.57
2023-01-15T21:59:58.325Z,5.60
2023-01-15T22:04:59.947Z,5.57
2023-01-15T22:10:01.763Z,5.50
2023-01-15T22:15:03.633Z,5.48
2023-01-15T22:20:08.126Z,5.54
2023-01-15T22:25:13.384Z,5.53
2023-01-15T22:30:16.618Z,5.44
2023-01-15T22:35:18.179Z,5.42
2023-01-15T22:40:19.676Z,5.48
2023-01-15T22:45:22.917Z,5.48
2023-01-15T22:50:24.449Z,5.40
2023-01-15T22:55:25.919Z,5.34
2023-01-15T23:00:31.066Z,5.41
2023-01-15T23:05:40.107Z,5.43
2023-01-15T23:10:44.517Z,5.36
2023-01-15T23:15:46.107Z,5.28
2023-01-15T23:20:47.763Z,5.21
2023-01-15T23:25:50.151Z,5.26
2023-01-15T23:30:51.694Z,5.26
2023-01-15T23:35:54.073Z,5.21
2023-01-15T23:40:55.568Z,5.14
2023-01-15T23:46:16.972Z,5.24
2023-01-15T23:51:18.592Z,5.26
2023-01-15T23:56:20.078Z,5.18
